createdAt,value
2018-04-30T00:02:22.947Z,11.46
2018-04-30T00:05:29.997Z,11.43
2018-04-30T00:08:36.126Z,11.40
2018-04-30T00:11:42.347Z,11.41
2018-04-30T00:14:47.934Z,11.43
2018-04-30T00:17:53.158Z,11.42
2018-04-30T00:20:58.381Z,11.39
2018-04-30T00:24:03.371Z,11.38
2018-04-30T00:27:09.511Z,11.34
2018-04-30T00:30:15.155Z,11.35
2018-04-30T00:33:20.374Z,11.34
2018-04-30T00:36:26.517Z,11.34
2018-04-30T00:39:33.601Z,11.32
2018-04-30T00:42:39.754Z,11.30
2018-04-30T00:45:44.966Z,11.28
2018-04-30T00:48:51.198Z,11.25
2018-04-30T00:51:57.999Z,11.25
2018-04-30T00:55:03.231Z,11.24
2018-04-30T00:58:08.883Z,11.22
2018-04-30T01:01:14.518Z,11.20
2018-04-30T01:04:20.734Z,11.20
2018-04-30T01:07:26.921Z,11.17
2018-04-30T01:10:33.260Z,11.12
2018-04-30T01:13:40.035Z,11.12
2018-04-30T01:16:45.458Z,11.10
2018-04-30T01:19:50.664Z,11.07
2018-04-30T01:22:55.926Z,11.07
2018-04-30T01:26:01.146Z,11.06
2018-04-30T01:29:06.408Z,11.04
2018-04-30T01:32:11.597Z,11.04
2018-04-30T01:35:16.582Z,11.04
2018-04-30T01:38:21.612Z,11.07
2018-04-30T01:41:26.834Z,11.04
2018-04-30T01:44:33.714Z,11.02
2018-04-30T01:47:40.550Z,11.02
2018-04-30T01:50:46.861Z,11.02
2018-04-30T01:53:53.033Z,11.01
2018-04-30T01:57:00.912Z,11.00
2018-04-30T02:00:06.162Z,11.01
2018-04-30T02:03:10.869Z,11.00
2018-04-30T02:06:16.869Z,11.01
2018-04-30T02:09:22.150Z,11.00
2018-04-30T02:12:28.334Z,10.99
2018-04-30T02:15:34.547Z,11.00
2018-04-30T02:18:39.542Z,10.98
2018-04-30T02:21:44.844Z,10.98
2018-04-30T02:24:50.938Z,10.98
2018-04-30T02:27:57.147Z,10.98
2018-04-30T02:31:04.145Z,10.97
2018-04-30T02:34:10.249Z,10.97
2018-04-30T02:37:16.439Z,11.00
2018-04-30T02:40:22.632Z,10.98
2018-04-30T02:43:28.759Z,10.99
2018-04-30T02:46:34.654Z,10.97
2018-04-30T02:49:41.372Z,10.96
2018-04-30T02:52:47.483Z,10.95
2018-04-30T02:55:53.727Z,10.95
2018-04-30T02:59:00.473Z,10.94
2018-04-30T03:02:06.658Z,10.93
2018-04-30T03:05:13.533Z,10.91
2018-04-30T03:08:18.805Z,10.91
2018-04-30T03:11:25.768Z,10.90
2018-04-30T03:14:32.523Z,10.89
2018-04-30T03:17:39.615Z,10.88
2018-04-30T03:20:45.412Z,10.89
2018-04-30T03:23:50.697Z,10.90
2018-04-30T03:26:57.752Z,10.88
2018-04-30T03:30:03.588Z,10.86
2018-04-30T03:33:09.173Z,10.85
2018-04-30T03:36:15.429Z,10.84
2018-04-30T03:39:20.702Z,10.85
2018-04-30T03:42:25.998Z,10.84
2018-04-30T03:45:32.210Z,10.86
2018-04-30T03:48:38.409Z,10.85
2018-04-30T03:51:44.317Z,10.84
2018-04-30T03:54:50.000Z,10.86
2018-04-30T03:57:56.207Z,10.86
2018-04-30T04:01:14.239Z,10.86
2018-04-30T04:04:30.917Z,10.86
2018-04-30T04:07:36.630Z,10.86
2018-04-30T04:10:42.821Z,10.89
2018-04-30T04:13:48.431Z,10.88
2018-04-30T04:16:53.721Z,10.89
2018-04-30T04:19:59.914Z,10.89
2018-04-30T04:23:05.218Z,10.91
2018-04-30T04:26:11.398Z,10.93
2018-04-30T04:29:16.677Z,10.93
2018-04-30T04:32:22.382Z,10.95
2018-04-30T04:35:27.666Z,10.96
2018-04-30T04:38:33.855Z,10.98
2018-04-30T04:41:40.098Z,10.98
2018-04-30T04:44:45.621Z,11.00
2018-04-30T04:47:51.729Z,11.02
2018-04-30T04:50:57.541Z,11.04
2018-04-30T04:54:02.542Z,11.06
2018-04-30T04:57:07.487Z,11.08
2018-04-30T05:00:13.433Z,11.10
2018-04-30T05:03:19.333Z,11.13
2018-04-30T05:06:25.221Z,11.15
2018-04-30T05:09:32.026Z,11.18
2018-04-30T05:12:39.033Z,11.20
2018-04-30T05:15:46.158Z,11.25
2018-04-30T05:18:52.246Z,11.28
2018-04-30T05:21:58.227Z,11.33
2018-04-30T05:25:03.757Z,11.36
2018-04-30T05:28:10.874Z,11.40
2018-04-30T05:31:16.982Z,11.44
2018-04-30T05:34:22.262Z,11.48
2018-04-30T05:37:28.363Z,11.54
2018-04-30T05:40:33.636Z,11.59
2018-04-30T05:43:38.954Z,11.64
2018-04-30T05:46:44.241Z,11.69
2018-04-30T05:49:50.425Z,11.74
2018-04-30T05:52:56.309Z,11.79
2018-04-30T05:56:01.588Z,11.84
2018-04-30T05:59:06.861Z,11.88
2018-04-30T06:02:12.818Z,11.93
2018-04-30T06:05:18.098Z,11.99
2018-04-30T06:08:23.365Z,12.03
2018-04-30T06:11:28.638Z,12.08
2018-04-30T06:14:33.926Z,12.14
2018-04-30T06:17:40.650Z,12.20
2018-04-30T06:20:47.638Z,12.26
2018-04-30T06:23:53.438Z,12.32
2018-04-30T06:27:01.063Z,12.38
2018-04-30T06:30:06.655Z,12.43
2018-04-30T06:33:11.644Z,12.49
2018-04-30T06:36:17.341Z,12.55
2018-04-30T06:39:22.982Z,12.61
2018-04-30T06:42:27.965Z,12.66
2018-04-30T06:45:32.969Z,12.70
2018-04-30T06:48:38.869Z,12.73
2018-04-30T06:51:44.949Z,12.76
2018-04-30T06:54:51.182Z,12.79
2018-04-30T06:57:56.173Z,12.84
2018-04-30T07:01:02.073Z,12.87
2018-04-30T07:04:08.003Z,12.89
2018-04-30T07:07:12.993Z,12.92
2018-04-30T07:10:18.270Z,12.95
2018-04-30T07:13:24.230Z,12.98
2018-04-30T07:16:29.217Z,13.03
2018-04-30T07:19:34.818Z,13.09
2018-04-30T07:22:40.725Z,13.14
2018-04-30T07:25:45.710Z,13.19
2018-04-30T07:28:50.689Z,13.25
2018-04-30T07:31:55.681Z,13.30
2018-04-30T07:35:01.594Z,13.35
2018-04-30T07:38:06.581Z,13.39
2018-04-30T07:41:11.571Z,13.45
2018-04-30T07:44:17.374Z,13.49
2018-04-30T07:47:22.638Z,13.56
2018-04-30T07:50:27.897Z,13.62
2018-04-30T07:53:33.837Z,13.70
2018-04-30T07:56:39.877Z,13.76
2018-04-30T07:59:45.654Z,13.84
2018-04-30T08:02:50.918Z,13.92
2018-04-30T08:05:56.622Z,13.99
2018-04-30T08:09:02.839Z,14.10
2018-04-30T08:12:07.855Z,14.18
2018-04-30T08:15:13.445Z,14.26
2018-04-30T08:18:19.425Z,14.33
2018-04-30T08:21:25.063Z,14.42
2018-04-30T08:24:32.057Z,14.49
2018-04-30T08:27:37.337Z,14.60
2018-04-30T08:30:42.613Z,14.67
2018-04-30T08:33:49.748Z,14.74
2018-04-30T08:36:55.547Z,14.81
2018-04-30T08:40:00.545Z,14.88
2018-04-30T08:43:06.485Z,14.96
2018-04-30T08:46:11.483Z,15.01
2018-04-30T08:49:17.398Z,15.08
2018-04-30T08:52:22.395Z,15.15
2018-04-30T08:55:28.571Z,15.21
2018-04-30T08:58:33.565Z,15.28
2018-04-30T09:01:40.670Z,15.33
2018-04-30T09:04:45.663Z,15.38
2018-04-30T09:07:51.576Z,15.47
2018-04-30T09:10:58.605Z,15.51
2018-04-30T09:14:04.106Z,15.56
2018-04-30T09:17:10.035Z,15.61
2018-04-30T09:20:15.785Z,15.65
2018-04-30T09:23:21.974Z,15.69
2018-04-30T09:26:27.859Z,15.74
2018-04-30T09:29:34.369Z,15.77
2018-04-30T09:32:39.306Z,15.81
2018-04-30T09:35:44.296Z,15.84
2018-04-30T09:38:50.293Z,15.88
2018-04-30T09:41:57.110Z,15.92
2018-04-30T09:45:02.911Z,15.95
2018-04-30T09:48:07.932Z,16.00
2018-04-30T09:51:12.913Z,16.05
2018-04-30T09:54:18.234Z,16.10
2018-04-30T09:57:24.414Z,16.13
2018-04-30T10:00:30.335Z,16.18
2018-04-30T10:03:36.309Z,16.22
2018-04-30T10:06:41.602Z,16.26
2018-04-30T10:09:46.594Z,16.31
2018-04-30T10:12:52.783Z,16.34
2018-04-30T10:15:57.782Z,16.38
2018-04-30T10:19:03.956Z,16.41
2018-04-30T10:22:10.970Z,16.44
2018-04-30T10:25:16.252Z,16.46
2018-04-30T10:28:22.214Z,16.49
2018-04-30T10:31:27.763Z,16.53
2018-04-30T10:34:33.041Z,16.55
2018-04-30T10:37:38.898Z,16.56
2018-04-30T10:40:44.710Z,16.59
2018-04-30T10:43:50.620Z,16.60
2018-04-30T10:46:57.265Z,16.62
2018-04-30T10:50:02.842Z,16.64
2018-04-30T10:53:09.038Z,16.66
2018-04-30T10:56:15.227Z,16.69
2018-04-30T10:59:21.149Z,16.69
2018-04-30T11:02:27.065Z,16.68
2018-04-30T11:05:33.278Z,16.68
2018-04-30T11:08:39.189Z,16.67
2018-04-30T11:11:45.200Z,16.64
2018-04-30T11:14:50.718Z,16.60
2018-04-30T11:17:56.652Z,16.58
2018-04-30T11:21:02.546Z,16.56
2018-04-30T11:24:07.547Z,16.53
2018-04-30T11:27:13.058Z,16.54
2018-04-30T11:30:19.023Z,16.52
2018-04-30T11:33:24.017Z,16.49
2018-04-30T11:36:31.144Z,16.49
2018-04-30T11:39:36.176Z,16.45
2018-04-30T11:42:41.934Z,16.46
2018-04-30T11:45:47.781Z,16.47
2018-04-30T11:48:54.445Z,16.46
2018-04-30T11:52:01.604Z,16.47
2018-04-30T11:55:07.789Z,16.46
2018-04-30T11:58:12.550Z,16.45
2018-04-30T12:01:17.350Z,16.43
2018-04-30T12:04:23.341Z,16.41
2018-04-30T12:07:28.847Z,16.37
2018-04-30T12:10:33.875Z,16.34
2018-04-30T12:13:39.807Z,16.29
2018-04-30T12:16:45.414Z,16.24
2018-04-30T12:19:51.542Z,16.20
2018-04-30T12:22:57.369Z,16.16
2018-04-30T12:26:03.037Z,16.13
2018-04-30T12:29:09.870Z,16.08
2018-04-30T12:32:15.745Z,16.04
2018-04-30T12:35:21.874Z,15.98
2018-04-30T12:38:27.781Z,15.94
2018-04-30T12:41:32.786Z,15.89
2018-04-30T12:44:38.893Z,15.84
2018-04-30T12:47:44.525Z,15.80
2018-04-30T12:50:50.452Z,15.75
2018-04-30T12:53:56.562Z,15.70
2018-04-30T12:57:02.297Z,15.65
2018-04-30T13:00:08.418Z,15.62
2018-04-30T13:03:14.335Z,15.57
2018-04-30T13:06:19.003Z,15.53
2018-04-30T13:09:25.571Z,15.50
2018-04-30T13:12:31.718Z,15.46
2018-04-30T13:15:37.638Z,15.42
2018-04-30T13:18:43.449Z,15.38
2018-04-30T13:21:49.266Z,15.34
2018-04-30T13:24:54.257Z,15.31
2018-04-30T13:28:00.165Z,15.29
2018-04-30T13:31:05.846Z,15.24
2018-04-30T13:34:11.349Z,15.20
2018-04-30T13:37:16.333Z,15.15
2018-04-30T13:40:21.930Z,15.10
2018-04-30T13:43:26.939Z,15.04
2018-04-30T13:46:32.938Z,14.98
2018-04-30T13:49:38.453Z,14.93
2018-04-30T13:52:44.356Z,14.89
2018-04-30T13:55:50.369Z,14.80
2018-04-30T13:58:55.854Z,14.78
2018-04-30T14:02:01.766Z,14.75
2018-04-30T14:05:07.689Z,14.73
2018-04-30T14:08:12.920Z,14.71
2018-04-30T14:11:18.811Z,14.69
2018-04-30T14:14:24.605Z,14.69
2018-04-30T14:17:29.626Z,14.68
2018-04-30T14:20:34.601Z,14.69
2018-04-30T14:23:40.022Z,14.69
2018-04-30T14:26:45.910Z,14.71
2018-04-30T14:29:50.890Z,14.73
2018-04-30T14:32:57.401Z,14.76
2018-04-30T14:36:02.050Z,14.81
2018-04-30T14:39:07.613Z,14.86
2018-04-30T14:42:12.361Z,14.92
2018-04-30T14:45:18.029Z,15.01
2018-04-30T14:48:23.530Z,15.09
2018-04-30T14:51:28.589Z,15.18
2018-04-30T14:54:34.517Z,15.25
2018-04-30T14:57:40.418Z,15.34
2018-04-30T15:00:46.222Z,15.39
2018-04-30T15:03:53.049Z,15.45
2018-04-30T15:06:57.793Z,15.47
2018-04-30T15:10:03.394Z,15.49
2018-04-30T15:13:09.369Z,15.55
2018-04-30T15:16:14.865Z,15.60
2018-04-30T15:19:20.073Z,15.67
2018-04-30T15:22:25.557Z,15.75
2018-04-30T15:25:32.358Z,15.83
2018-04-30T15:28:38.245Z,15.91
2018-04-30T15:31:44.726Z,15.96
2018-04-30T15:34:50.218Z,16.01
2018-04-30T15:37:55.201Z,16.07
2018-04-30T15:41:01.081Z,16.13
2018-04-30T15:44:06.129Z,16.14
2018-04-30T15:47:12.017Z,16.16
2018-04-30T15:50:17.815Z,16.18
2018-04-30T15:53:23.697Z,16.19
2018-04-30T15:56:28.686Z,16.20
2018-04-30T15:59:34.569Z,16.20
2018-04-30T16:02:40.366Z,16.20
2018-04-30T16:05:45.371Z,16.18
2018-04-30T16:08:50.390Z,16.17
2018-04-30T16:11:56.601Z,16.15
2018-04-30T16:15:02.343Z,16.13
2018-04-30T16:18:08.277Z,16.11
2018-04-30T16:21:13.295Z,16.10
2018-04-30T16:24:19.273Z,16.08
2018-04-30T16:27:24.790Z,16.05
2018-04-30T16:30:29.965Z,16.05
2018-04-30T16:33:35.019Z,16.03
2018-04-30T16:36:40.046Z,16.01
2018-04-30T16:39:44.807Z,16.00
2018-04-30T16:42:51.366Z,16.00
2018-04-30T16:45:56.360Z,15.98
2018-04-30T16:49:01.971Z,15.97
2018-04-30T16:52:08.829Z,15.95
2018-04-30T16:55:14.806Z,15.92
2018-04-30T16:58:20.302Z,15.90
2018-04-30T17:01:26.200Z,15.87
2018-04-30T17:04:31.186Z,15.84
2018-04-30T17:07:36.170Z,15.79
2018-04-30T17:10:42.070Z,15.74
2018-04-30T17:13:46.745Z,15.71
2018-04-30T17:16:52.000Z,15.67
2018-04-30T17:19:57.286Z,15.64
2018-04-30T17:23:02.274Z,15.61
2018-04-30T17:26:07.257Z,15.57
2018-04-30T17:29:13.253Z,15.53
2018-04-30T17:32:19.029Z,15.48
2018-04-30T17:35:24.961Z,15.44
2018-04-30T17:38:30.941Z,15.39
2018-04-30T17:41:36.438Z,15.35
2018-04-30T17:44:41.432Z,15.30
2018-04-30T17:47:46.431Z,15.26
2018-04-30T17:50:52.327Z,15.21
2018-04-30T17:53:57.382Z,15.18
2018-04-30T17:57:02.586Z,15.14
2018-04-30T18:00:08.198Z,15.10
2018-04-30T18:03:13.189Z,15.05
2018-04-30T18:06:18.765Z,15.02
2018-04-30T18:09:24.686Z,14.98
2018-04-30T18:12:31.491Z,14.95
2018-04-30T18:15:37.173Z,14.91
2018-04-30T18:18:43.085Z,14.86
2018-04-30T18:21:48.673Z,14.82
2018-04-30T18:24:53.669Z,14.76
2018-04-30T18:27:59.565Z,14.71
2018-04-30T18:31:04.555Z,14.67
2018-04-30T18:34:09.834Z,14.61
2018-04-30T18:37:16.553Z,14.57
2018-04-30T18:40:22.555Z,14.53
2018-04-30T18:43:28.473Z,14.50
2018-04-30T18:46:33.933Z,14.46
2018-04-30T18:49:39.138Z,14.42
2018-04-30T18:52:45.035Z,14.39
2018-04-30T18:55:51.206Z,14.35
2018-04-30T18:58:57.010Z,14.32
2018-04-30T19:02:02.852Z,14.30
2018-04-30T19:05:08.745Z,14.27
2018-04-30T19:08:14.646Z,14.23
2018-04-30T19:11:20.557Z,14.19
2018-04-30T19:14:26.516Z,14.16
2018-04-30T19:17:32.489Z,14.11
2018-04-30T19:20:37.489Z,14.07
2018-04-30T19:23:42.511Z,14.01
2018-04-30T19:26:49.605Z,13.96
2018-04-30T19:29:55.096Z,13.93
2018-04-30T19:33:00.986Z,13.90
2018-04-30T19:36:05.979Z,13.84
2018-04-30T19:39:10.957Z,13.80
2018-04-30T19:42:16.351Z,13.75
2018-04-30T19:45:22.183Z,13.72
2018-04-30T19:48:28.169Z,13.66
2018-04-30T19:51:34.090Z,13.62
2018-04-30T19:54:40.906Z,13.57
2018-04-30T19:57:46.825Z,13.52
2018-04-30T20:00:52.797Z,13.45
2018-04-30T20:03:58.314Z,13.41
2018-04-30T20:07:03.578Z,13.36
2018-04-30T20:10:09.495Z,13.31
2018-04-30T20:13:14.492Z,13.24
2018-04-30T20:16:20.105Z,13.19
2018-04-30T20:19:25.964Z,13.12
2018-04-30T20:22:30.957Z,13.08
2018-04-30T20:25:36.897Z,13.01
2018-04-30T20:28:41.884Z,12.95
2018-04-30T20:31:46.870Z,12.90
2018-04-30T20:34:51.632Z,12.84
2018-04-30T20:37:57.374Z,12.77
2018-04-30T20:41:03.423Z,12.72
2018-04-30T20:44:09.221Z,12.64
2018-04-30T20:47:15.425Z,12.58
2018-04-30T20:50:21.061Z,12.51
2018-04-30T20:53:27.051Z,12.45
2018-04-30T20:56:32.732Z,12.40
2018-04-30T20:59:37.717Z,12.31
2018-04-30T21:02:43.615Z,12.26
2018-04-30T21:05:49.598Z,12.18
2018-04-30T21:09:06.093Z,12.12
2018-04-30T21:12:12.232Z,12.03
2018-04-30T21:15:18.879Z,11.97
2018-04-30T21:18:24.382Z,11.91
2018-04-30T21:21:31.938Z,11.83
2018-04-30T21:24:37.274Z,11.80
2018-04-30T21:27:42.685Z,11.73
2018-04-30T21:30:47.954Z,11.66
2018-04-30T21:33:53.865Z,11.61
2018-04-30T21:36:58.877Z,11.53
2018-04-30T21:40:03.434Z,11.51
2018-04-30T21:43:09.298Z,11.42
2018-04-30T21:46:14.304Z,11.37
2018-04-30T21:49:19.477Z,11.34
2018-04-30T21:52:25.662Z,11.26
2018-04-30T21:55:31.748Z,11.22
2018-04-30T21:58:38.547Z,11.19
2018-04-30T22:01:44.541Z,11.14
2018-04-30T22:04:50.380Z,11.15
2018-04-30T22:07:55.362Z,11.11
2018-04-30T22:11:00.659Z,11.05
2018-04-30T22:14:05.651Z,11.05
2018-04-30T22:17:11.609Z,11.09
2018-04-30T22:20:17.462Z,11.10
2018-04-30T22:23:23.697Z,11.11
2018-04-30T22:26:29.577Z,11.10
2018-04-30T22:29:35.765Z,11.06
2018-04-30T22:32:41.665Z,11.02
2018-04-30T22:35:47.874Z,10.94
2018-04-30T22:38:52.866Z,10.90
2018-04-30T22:41:58.732Z,10.83
2018-04-30T22:45:04.581Z,10.77
2018-04-30T22:48:09.845Z,10.73
2018-04-30T22:51:15.834Z,10.69
2018-04-30T22:54:22.251Z,10.65
2018-04-30T22:57:27.557Z,10.59
2018-04-30T23:00:32.485Z,10.56
2018-04-30T23:03:37.501Z,10.52
2018-04-30T23:06:42.771Z,10.45
2018-04-30T23:09:48.046Z,10.45
2018-04-30T23:12:53.309Z,10.42
2018-04-30T23:16:00.423Z,10.37
2018-04-30T23:19:06.550Z,10.31
2018-04-30T23:22:15.325Z,10.26
2018-04-30T23:25:20.966Z,10.21
2018-04-30T23:28:26.747Z,10.16
2018-04-30T23:31:33.554Z,10.12
2018-04-30T23:34:38.826Z,10.07
2018-04-30T23:37:44.108Z,10.02
2018-04-30T23:40:50.274Z,10.03
2018-04-30T23:43:56.453Z,9.96
2018-04-30T23:47:01.437Z,9.93
2018-04-30T23:50:07.603Z,9.92
2018-04-30T23:53:13.674Z,9.99
2018-04-30T23:56:19.837Z,9.96
2018-04-30T23:59:26.117Z,10.02
